createdAt,value
2022-10-18T00:02:42.660Z,20.45
2022-10-18T00:05:46.603Z,21.55
2022-10-18T00:08:49.078Z,20.62
2022-10-18T00:11:52.060Z,21.80
2022-10-18T00:14:54.530Z,22.00
2022-10-18T00:17:57.499Z,21.55
2022-10-18T00:21:02.259Z,21.58
2022-10-18T00:24:05.771Z,21.92
2022-10-18T00:27:08.406Z,21.20
2022-10-18T00:30:11.764Z,20.65
2022-10-18T00:33:14.163Z,20.00
2022-10-18T01:25:50.812Z,21.40
2022-10-18T01:29:21.797Z,20.75
2022-10-18T01:32:31.274Z,20.65
2022-10-18T01:35:40.790Z,20.50
2022-10-18T01:38:45.277Z,21.40
2022-10-18T01:41:51.039Z,18.67
2022-10-18T01:44:54.799Z,21.15
2022-10-18T01:47:59.259Z,21.15
2022-10-18T01:51:03.810Z,20.37
2022-10-18T01:54:06.823Z,21.62
2022-10-18T01:57:35.700Z,20.50
2022-10-18T02:00:42.347Z,18.50
2022-10-18T02:03:48.403Z,19.65
2022-10-18T02:06:58.703Z,20.48
2022-10-18T02:10:06.698Z,20.75
2022-10-18T02:13:13.421Z,20.30
2022-10-18T02:16:39.343Z,19.55
2022-10-18T02:19:50.191Z,18.23
2022-10-18T02:22:55.771Z,18.98
2022-10-18T02:25:58.697Z,18.92
2022-10-18T02:29:01.909Z,19.05
2022-10-18T02:32:10.758Z,18.77
2022-10-18T02:35:34.562Z,18.23
2022-10-18T02:41:41.764Z,17.98
2022-10-18T02:44:44.459Z,17.12
2022-10-18T02:47:47.329Z,18.52
2022-10-18T02:50:49.948Z,18.85
2022-10-18T02:53:52.683Z,18.25
2022-10-18T02:56:55.349Z,18.05
2022-10-18T02:59:58.102Z,18.77
2022-10-18T03:03:01.107Z,17.85
2022-10-18T03:06:04.098Z,18.33
2022-10-18T03:09:07.377Z,18.23
2022-10-18T03:12:10.129Z,18.00
2022-10-18T03:15:12.732Z,19.15
2022-10-18T03:18:15.759Z,18.60
2022-10-18T03:21:18.454Z,18.20
2022-10-18T03:24:21.259Z,17.80
2022-10-18T03:27:23.901Z,17.67
2022-10-18T03:30:26.650Z,19.23
2022-10-18T03:33:29.901Z,19.77
2022-10-18T03:39:36.513Z,17.37
2022-10-18T03:42:39.348Z,17.33
2022-10-18T03:45:43.357Z,17.98
2022-10-18T03:48:46.146Z,17.30
2022-10-18T03:51:49.018Z,17.50
2022-10-18T03:54:51.796Z,17.42
2022-10-18T03:57:54.503Z,17.92
2022-10-18T04:00:57.259Z,17.83
2022-10-18T04:04:00.180Z,16.50
2022-10-18T04:07:02.607Z,19.07
2022-10-18T04:10:06.193Z,17.23
2022-10-18T04:13:08.896Z,16.60
2022-10-18T04:16:11.831Z,19.08
2022-10-18T04:19:14.391Z,21.83
2022-10-18T04:22:17.445Z,20.33
2022-10-18T04:25:19.940Z,18.35
2022-10-18T04:28:22.800Z,19.27
2022-10-18T04:31:25.565Z,18.70
2022-10-18T04:34:28.483Z,18.40
2022-10-18T04:37:31.408Z,18.93
2022-10-18T04:40:34.909Z,18.83
2022-10-18T04:43:37.594Z,19.90
2022-10-18T04:49:42.844Z,19.85
2022-10-18T04:52:46.021Z,18.58
2022-10-18T04:55:49.919Z,19.20
2022-10-18T04:58:52.863Z,19.58
2022-10-18T05:01:55.422Z,19.53
2022-10-18T05:04:58.470Z,19.70
2022-10-18T05:08:01.017Z,18.70
2022-10-18T05:11:04.658Z,18.80
2022-10-18T05:14:10.181Z,19.30
2022-10-18T05:17:13.142Z,18.12
2022-10-18T05:20:15.905Z,18.87
2022-10-18T05:23:19.100Z,17.15
2022-10-18T05:26:21.979Z,19.58
2022-10-18T05:29:25.165Z,19.60
2022-10-18T05:32:27.715Z,20.08
2022-10-18T05:35:30.627Z,19.90
2022-10-18T05:38:33.174Z,20.93
2022-10-18T05:44:38.786Z,20.05
2022-10-18T05:47:41.760Z,20.77
2022-10-18T05:50:46.169Z,20.47
2022-10-18T05:53:49.120Z,19.67
2022-10-18T05:56:52.300Z,20.15
2022-10-18T05:59:55.207Z,20.48
2022-10-18T06:03:00.185Z,21.70
2022-10-18T06:06:06.817Z,20.92
2022-10-18T06:09:09.591Z,20.55
2022-10-18T06:15:14.951Z,20.27
2022-10-18T06:18:17.904Z,20.98
2022-10-18T06:21:21.312Z,20.83
2022-10-18T06:24:24.279Z,21.23
2022-10-18T06:27:26.715Z,22.23
2022-10-18T06:30:29.576Z,21.00
2022-10-18T06:33:32.765Z,22.57
2022-10-18T06:36:35.814Z,21.98
2022-10-18T06:39:38.337Z,22.65
2022-10-18T06:45:43.788Z,21.58
2022-10-18T06:48:46.679Z,20.20
2022-10-18T06:51:50.071Z,23.73
2022-10-18T06:54:54.013Z,21.67
2022-10-18T06:57:56.678Z,23.33
2022-10-18T07:00:59.722Z,21.87
2022-10-18T07:04:02.200Z,20.23
2022-10-18T07:07:05.148Z,20.70
2022-10-18T07:10:11.192Z,18.73
2022-10-18T07:13:32.780Z,20.65
2022-10-18T07:16:36.156Z,21.00
2022-10-18T07:19:39.193Z,19.83
2022-10-18T07:22:41.678Z,19.52
2022-10-18T07:25:44.850Z,19.87
2022-10-18T07:28:50.702Z,18.52
2022-10-18T07:31:53.685Z,18.48
2022-10-18T07:34:56.091Z,19.33
2022-10-18T07:37:59.282Z,20.77
2022-10-18T07:41:03.803Z,20.30
2022-10-18T07:44:06.805Z,19.37
2022-10-18T07:47:09.261Z,19.45
2022-10-18T07:50:12.189Z,19.05
2022-10-18T07:53:15.115Z,17.67
2022-10-18T07:56:21.024Z,17.45
2022-10-18T07:59:23.972Z,16.62
2022-10-18T08:02:26.888Z,16.27
2022-10-18T08:05:29.691Z,15.88
2022-10-18T08:08:32.862Z,16.75
2022-10-18T08:11:35.584Z,16.73
2022-10-18T08:14:38.201Z,17.95
2022-10-18T08:17:41.048Z,16.70
2022-10-18T08:20:46.618Z,17.25
2022-10-18T08:23:50.288Z,17.35
2022-10-18T08:26:52.976Z,17.00
2022-10-18T08:29:55.701Z,15.15
2022-10-18T08:32:58.367Z,16.25
2022-10-18T08:36:03.402Z,16.50
2022-10-18T08:39:06.075Z,17.10
2022-10-18T08:42:14.132Z,15.23
2022-10-18T08:45:30.009Z,15.38
2022-10-18T08:48:39.152Z,13.95
2022-10-18T08:51:50.898Z,12.02
2022-10-18T08:55:10.946Z,10.80
2022-10-18T08:58:22.784Z,11.05
2022-10-18T09:01:53.655Z,10.82
2022-10-18T09:05:05.229Z,11.12
2022-10-18T09:08:32.072Z,11.30
2022-10-18T09:11:43.597Z,9.60
2022-10-18T09:15:13.306Z,10.15
2022-10-18T09:18:19.083Z,9.70
2022-10-18T09:21:42.430Z,10.95
2022-10-18T09:24:48.357Z,10.88
2022-10-18T09:27:56.955Z,10.75
2022-10-18T09:31:24.567Z,11.82
2022-10-18T09:34:34.748Z,9.80
2022-10-18T09:37:37.995Z,10.15
2022-10-18T09:41:19.024Z,9.88
2022-10-18T09:44:33.354Z,10.23
2022-10-18T09:47:41.505Z,9.95
2022-10-18T09:50:50.495Z,9.70
2022-10-18T09:53:59.031Z,8.65
2022-10-18T09:57:34.568Z,9.10
2022-10-18T10:00:48.162Z,8.48
2022-10-18T10:03:52.007Z,8.70
2022-10-18T10:06:56.629Z,8.10
2022-10-18T10:10:19.944Z,7.62
2022-10-18T10:13:26.313Z,8.13
2022-10-18T10:16:29.329Z,7.70
2022-10-18T10:19:39.959Z,7.43
2022-10-18T10:22:46.636Z,7.87
2022-10-18T10:25:55.843Z,7.25
2022-10-18T10:28:59.503Z,8.00
2022-10-18T10:32:03.978Z,8.18
2022-10-18T10:35:54.025Z,8.30
2022-10-18T10:39:21.491Z,7.72
2022-10-18T10:42:24.553Z,7.10
2022-10-18T10:45:35.305Z,7.22
2022-10-18T10:48:48.396Z,6.37
2022-10-18T10:52:08.336Z,6.75
2022-10-18T10:55:35.429Z,7.32
2022-10-18T10:58:40.628Z,6.43
2022-10-18T11:01:43.876Z,7.28
2022-10-18T11:04:50.272Z,7.20
2022-10-18T11:07:58.201Z,6.97
2022-10-18T11:11:00.600Z,7.55
2022-10-18T11:14:26.289Z,7.12
2022-10-18T11:17:41.621Z,6.80
2022-10-18T11:20:56.315Z,7.20
2022-10-18T11:24:02.042Z,7.20
2022-10-18T11:27:25.160Z,7.10
2022-10-18T11:30:49.676Z,7.43
2022-10-18T11:34:20.594Z,7.00
2022-10-18T11:37:38.756Z,6.45
2022-10-18T11:40:50.257Z,6.30
2022-10-18T11:44:03.649Z,6.87
2022-10-18T11:47:13.241Z,6.43
2022-10-18T11:50:28.113Z,6.62
2022-10-18T11:53:37.289Z,6.60
2022-10-18T11:56:58.251Z,6.37
2022-10-18T12:00:20.749Z,7.10
2022-10-18T12:03:45.345Z,6.20
2022-10-18T12:06:52.239Z,6.90
2022-10-18T12:09:56.585Z,6.78
2022-10-18T12:13:03.907Z,6.22
2022-10-18T12:16:09.357Z,7.20
2022-10-18T12:19:23.378Z,6.22
2022-10-18T12:22:38.087Z,6.05
2022-10-18T12:25:50.991Z,6.47
2022-10-18T12:29:08.721Z,6.68
2022-10-18T12:32:14.796Z,5.95
2022-10-18T12:35:19.695Z,6.43
2022-10-18T12:38:35.545Z,6.60
2022-10-18T12:41:38.683Z,6.25
2022-10-18T12:44:42.291Z,6.40
2022-10-18T12:47:45.085Z,6.40
2022-10-18T12:50:58.976Z,6.20
2022-10-18T12:54:04.207Z,6.15
2022-10-18T13:00:29.639Z,5.95
2022-10-18T13:03:54.212Z,6.90
2022-10-18T13:06:59.920Z,5.35
2022-10-18T13:10:15.007Z,5.62
2022-10-18T13:13:39.573Z,5.40
2022-10-18T13:16:49.013Z,5.53
2022-10-18T13:20:28.100Z,5.75
2022-10-18T13:23:43.249Z,5.07
2022-10-18T13:27:31.337Z,4.85
2022-10-18T13:30:46.310Z,5.37
2022-10-18T13:33:49.601Z,5.15
2022-10-18T13:37:20.490Z,4.90
2022-10-18T13:40:25.611Z,4.82
2022-10-18T13:43:55.052Z,5.40
2022-10-18T13:46:57.819Z,5.20
2022-10-18T13:53:30.093Z,5.25
2022-10-18T13:56:52.966Z,5.28
2022-10-18T14:00:16.820Z,5.18
2022-10-18T14:03:58.923Z,5.57
2022-10-18T14:07:06.019Z,5.20
2022-10-18T14:10:43.815Z,5.90
2022-10-18T14:14:00.181Z,5.80
2022-10-18T14:17:21.655Z,5.18
2022-10-18T14:20:49.445Z,5.40
2022-10-18T14:24:00.813Z,4.95
2022-10-18T14:27:16.699Z,5.65
2022-10-18T14:30:25.588Z,6.18
2022-10-18T14:33:58.086Z,5.57
2022-10-18T14:40:04.748Z,6.05
2022-10-18T14:43:14.088Z,6.47
2022-10-18T14:46:30.032Z,5.60
2022-10-18T14:49:42.361Z,5.37
2022-10-18T14:52:45.443Z,5.28
2022-10-18T14:55:56.285Z,6.00
2022-10-18T14:59:03.575Z,5.18
2022-10-18T15:02:24.557Z,6.00
2022-10-18T15:05:27.350Z,5.78
2022-10-18T15:08:44.020Z,5.62
2022-10-18T15:11:47.179Z,6.00
2022-10-18T15:14:51.185Z,5.70
2022-10-18T15:17:54.910Z,6.22
2022-10-18T15:21:22.253Z,5.80
2022-10-18T15:24:27.527Z,6.40
2022-10-18T15:27:35.241Z,6.22
2022-10-18T15:30:42.729Z,5.80
2022-10-18T15:33:45.772Z,6.05
2022-10-18T15:36:49.813Z,5.80
2022-10-18T15:40:29.027Z,6.57
2022-10-18T15:43:34.427Z,6.28
2022-10-18T15:46:39.515Z,7.00
2022-10-18T15:49:44.944Z,7.10
2022-10-18T15:52:48.010Z,7.35
2022-10-18T15:55:52.635Z,7.20
2022-10-18T15:58:57.316Z,6.78
2022-10-18T16:01:59.859Z,6.78
2022-10-18T16:05:03.064Z,7.50
2022-10-18T16:08:05.897Z,7.37
2022-10-18T16:11:21.216Z,7.62
2022-10-18T16:14:24.149Z,7.80
2022-10-18T16:17:27.404Z,7.72
2022-10-18T16:20:30.072Z,7.50
2022-10-18T16:23:33.287Z,7.15
2022-10-18T16:26:36.466Z,8.32
2022-10-18T16:29:41.240Z,8.38
2022-10-18T16:32:43.704Z,7.72
2022-10-18T16:38:49.560Z,8.13
2022-10-18T16:41:52.684Z,8.32
2022-10-18T16:44:55.133Z,7.70
2022-10-18T16:47:58.020Z,8.98
2022-10-18T16:51:01.430Z,9.65
2022-10-18T16:54:05.452Z,9.88
2022-10-18T16:57:09.839Z,12.37
2022-10-18T17:00:19.095Z,11.82
2022-10-18T17:03:21.882Z,10.48
2022-10-18T17:06:27.869Z,10.30
2022-10-18T17:09:30.735Z,10.60
2022-10-18T17:12:34.042Z,9.93
2022-10-18T17:18:39.425Z,10.13
2022-10-18T17:21:41.883Z,9.80
2022-10-18T17:24:44.950Z,11.15
2022-10-18T17:27:47.505Z,10.77
2022-10-18T17:33:54.738Z,10.20
2022-10-18T17:36:57.781Z,10.32
2022-10-18T17:40:00.404Z,10.85
2022-10-18T17:46:06.102Z,12.13
2022-10-18T17:49:09.046Z,11.40
2022-10-18T17:52:11.978Z,11.43
2022-10-18T17:55:15.577Z,12.90
2022-10-18T17:58:18.228Z,13.55
2022-10-18T18:01:23.213Z,11.90
2022-10-18T18:04:26.033Z,12.93
2022-10-18T18:07:28.676Z,11.63
2022-10-18T18:10:35.219Z,11.23
2022-10-18T18:13:38.039Z,11.73
2022-10-18T18:16:42.960Z,11.52
2022-10-18T18:19:45.642Z,11.07
2022-10-18T18:22:48.451Z,11.98
2022-10-18T18:25:58.177Z,12.85
2022-10-18T18:32:09.182Z,11.38
2022-10-18T18:35:11.878Z,12.00
2022-10-18T18:38:14.568Z,11.73
2022-10-18T18:41:25.212Z,12.40
2022-10-18T18:44:28.355Z,12.40
2022-10-18T18:50:37.963Z,11.45
2022-10-18T18:53:41.828Z,12.02
2022-10-18T18:56:44.573Z,12.00
2022-10-18T18:59:47.289Z,13.95
2022-10-18T19:02:49.977Z,14.38
2022-10-18T19:06:02.747Z,13.05
2022-10-18T19:09:19.669Z,13.75
2022-10-18T19:12:22.534Z,17.12
2022-10-18T19:15:25.425Z,14.35
2022-10-18T19:21:33.719Z,13.18
2022-10-18T19:24:37.320Z,14.77
2022-10-18T19:27:40.070Z,13.77
2022-10-18T19:30:46.671Z,13.48
2022-10-18T19:33:59.354Z,13.85
2022-10-18T19:37:03.512Z,15.77
2022-10-18T19:40:06.793Z,13.80
2022-10-18T19:43:09.728Z,14.93
2022-10-18T19:46:12.464Z,14.13
2022-10-18T19:49:15.787Z,13.73
2022-10-18T19:52:18.625Z,13.23
2022-10-18T19:55:21.405Z,13.02
2022-10-18T19:58:24.051Z,13.43
2022-10-18T20:01:28.872Z,14.80
2022-10-18T20:04:34.637Z,15.30
2022-10-18T20:07:37.106Z,15.10
2022-10-18T20:10:40.199Z,14.52
2022-10-18T20:13:43.284Z,15.57
2022-10-18T20:16:46.264Z,16.25
2022-10-18T20:19:48.809Z,15.85
2022-10-18T20:22:51.684Z,16.52
2022-10-18T20:25:59.386Z,16.33
2022-10-18T20:29:02.560Z,15.02
2022-10-18T20:32:05.295Z,15.63
2022-10-18T20:38:10.719Z,16.00
2022-10-18T20:41:19.931Z,16.37
2022-10-18T20:44:22.744Z,16.15
2022-10-18T20:50:27.808Z,16.23
2022-10-18T20:53:33.069Z,16.65
2022-10-18T20:56:38.888Z,15.93
2022-10-18T20:59:41.904Z,16.48
2022-10-18T21:02:44.368Z,17.37
2022-10-18T21:05:47.252Z,17.20
2022-10-18T21:08:57.643Z,17.60
2022-10-18T21:12:00.549Z,15.75
2022-10-18T21:15:03.344Z,17.00
2022-10-18T21:21:11.000Z,15.85
2022-10-18T21:24:14.069Z,16.48
2022-10-18T21:27:16.501Z,18.25
2022-10-18T21:30:19.700Z,17.48
2022-10-18T21:33:22.663Z,17.77
2022-10-18T21:36:27.701Z,17.20
2022-10-18T21:39:30.232Z,17.08
2022-10-18T21:42:33.805Z,17.45
2022-10-18T21:45:36.480Z,17.12
2022-10-18T21:48:44.180Z,18.80
2022-10-18T21:51:46.915Z,18.17
2022-10-18T21:54:49.973Z,18.70
2022-10-18T21:57:52.620Z,18.10
2022-10-18T22:00:55.627Z,18.62
2022-10-18T22:04:00.168Z,19.23
2022-10-18T22:07:04.843Z,19.37
2022-10-18T22:10:07.953Z,20.10
2022-10-18T22:13:10.547Z,19.25
2022-10-18T22:16:15.108Z,20.05
2022-10-18T22:19:18.000Z,18.60
2022-10-18T22:22:20.758Z,19.12
2022-10-18T22:25:23.482Z,19.10
2022-10-18T22:28:26.270Z,19.70
2022-10-18T22:31:32.691Z,19.40
2022-10-18T22:34:35.406Z,19.27
2022-10-18T22:37:38.078Z,19.92
2022-10-18T22:40:40.790Z,19.98
2022-10-18T22:43:43.447Z,22.55
2022-10-18T22:46:46.277Z,21.30
2022-10-18T22:49:48.945Z,22.70
2022-10-18T22:52:53.937Z,21.45
2022-10-18T22:55:57.445Z,20.05
2022-10-18T22:59:00.258Z,20.77
2022-10-18T23:02:02.908Z,19.67
2022-10-18T23:05:05.830Z,19.33
2022-10-18T23:08:10.626Z,19.98
2022-10-18T23:11:13.794Z,18.87
2022-10-18T23:14:16.500Z,19.70
2022-10-18T23:17:19.171Z,21.12
2022-10-18T23:20:21.829Z,20.23
2022-10-18T23:23:24.598Z,19.83
2022-10-18T23:26:28.307Z,20.33
2022-10-18T23:29:31.088Z,19.23
2022-10-18T23:32:35.331Z,20.83
2022-10-18T23:35:38.308Z,20.02
2022-10-18T23:38:41.794Z,19.60
2022-10-18T23:41:44.656Z,19.70
2022-10-18T23:44:48.210Z,20.27
2022-10-18T23:47:50.883Z,19.02
2022-10-18T23:50:53.636Z,19.90
2022-10-18T23:53:56.295Z,18.85
2022-10-18T23:56:59.132Z,20.30
